sensor_id;sensor_type;location;lat;lon;timestamp;pressure;altitude;pressure_sealevel;temperature;humidity
55801;BME280;41730;51.960;20.158;2023-02-16T00:01:16;101069.55;;;1.84;78.10
55801;BME280;41730;51.960;20.158;2023-02-16T00:03:50;101064.57;;;2.04;77.30
55801;BME280;41730;51.960;20.158;2023-02-16T00:06:24;101067.29;;;1.95;77.23
55801;BME280;41730;51.960;20.158;2023-02-16T00:08:57;101069.46;;;1.87;77.63
55801;BME280;41730;51.960;20.158;2023-02-16T00:11:34;101071.52;;;1.93;77.38
55801;BME280;41730;51.960;20.158;2023-02-16T00:14:25;101068.49;;;1.96;77.18
55801;BME280;41730;51.960;20.158;2023-02-16T00:16:59;101064.34;;;1.90;77.01
55801;BME280;41730;51.960;20.158;2023-02-16T00:19:33;101065.14;;;1.87;77.46
55801;BME280;41730;51.960;20.158;2023-02-16T00:22:06;101056.84;;;1.65;77.79
55801;BME280;41730;51.960;20.158;2023-02-16T00:24:38;101056.52;;;1.59;78.18
55801;BME280;41730;51.960;20.158;2023-02-16T00:27:14;101052.61;;;1.52;78.54
55801;BME280;41730;51.960;20.158;2023-02-16T00:29:48;101050.25;;;1.61;77.93
55801;BME280;41730;51.960;20.158;2023-02-16T00:32:25;101041.20;;;1.58;77.81
55801;BME280;41730;51.960;20.158;2023-02-16T00:34:57;101039.31;;;1.57;78.02
55801;BME280;41730;51.960;20.158;2023-02-16T00:37:32;101040.04;;;1.56;78.01
55801;BME280;41730;51.960;20.158;2023-02-16T00:40:12;101038.90;;;1.54;78.03
55801;BME280;41730;51.960;20.158;2023-02-16T00:42:47;101037.97;;;1.50;78.38
55801;BME280;41730;51.960;20.158;2023-02-16T00:45:26;101023.34;;;1.38;78.49
55801;BME280;41730;51.960;20.158;2023-02-16T00:47:59;101027.14;;;1.43;78.44
55801;BME280;41730;51.960;20.158;2023-02-16T00:50:32;101020.95;;;1.36;78.96
55801;BME280;41730;51.960;20.158;2023-02-16T00:53:07;101015.55;;;1.38;78.91
55801;BME280;41730;51.960;20.158;2023-02-16T00:55:40;101009.96;;;1.51;78.01
55801;BME280;41730;51.960;20.158;2023-02-16T00:58:18;101000.00;;;1.43;77.92
55801;BME280;41730;51.960;20.158;2023-02-16T01:00:57;100995.64;;;1.44;77.99
55801;BME280;41730;51.960;20.158;2023-02-16T01:03:32;100992.23;;;1.43;78.03
55801;BME280;41730;51.960;20.158;2023-02-16T01:06:05;100985.19;;;1.47;77.88
55801;BME280;41730;51.960;20.158;2023-02-16T01:09:08;100985.38;;;1.30;78.44
55801;BME280;41730;51.960;20.158;2023-02-16T01:11:58;100985.80;;;1.39;78.15
55801;BME280;41730;51.960;20.158;2023-02-16T01:14:32;100986.20;;;1.37;78.13
55801;BME280;41730;51.960;20.158;2023-02-16T01:17:04;100985.25;;;1.34;78.34
55801;BME280;41730;51.960;20.158;2023-02-16T01:19:37;100981.00;;;1.27;78.55
55801;BME280;41730;51.960;20.158;2023-02-16T01:22:09;100985.42;;;1.29;78.35
55801;BME280;41730;51.960;20.158;2023-02-16T01:24:41;100983.50;;;1.40;77.93
55801;BME280;41730;51.960;20.158;2023-02-16T01:27:14;100985.86;;;1.37;78.24
55801;BME280;41730;51.960;20.158;2023-02-16T01:29:47;100987.64;;;1.35;77.93
55801;BME280;41730;51.960;20.158;2023-02-16T01:32:19;100986.61;;;1.24;78.56
55801;BME280;41730;51.960;20.158;2023-02-16T01:34:52;100985.45;;;1.23;78.30
55801;BME280;41730;51.960;20.158;2023-02-16T01:37:24;100982.27;;;1.25;78.19
55801;BME280;41730;51.960;20.158;2023-02-16T01:39:58;100979.85;;;1.09;78.54
55801;BME280;41730;51.960;20.158;2023-02-16T01:42:36;100977.78;;;0.97;79.26
55801;BME280;41730;51.960;20.158;2023-02-16T01:45:18;100967.87;;;1.11;78.68
55801;BME280;41730;51.960;20.158;2023-02-16T01:47:57;100960.94;;;1.12;78.46
55801;BME280;41730;51.960;20.158;2023-02-16T01:50:41;100959.81;;;1.09;78.44
55801;BME280;41730;51.960;20.158;2023-02-16T01:53:25;100962.79;;;1.07;78.56
55801;BME280;41730;51.960;20.158;2023-02-16T01:56:05;100964.32;;;1.14;78.36
55801;BME280;41730;51.960;20.158;2023-02-16T01:58:49;100959.66;;;1.24;77.87
55801;BME280;41730;51.960;20.158;2023-02-16T02:01:48;100959.52;;;1.18;77.95
55801;BME280;41730;51.960;20.158;2023-02-16T02:04:28;100961.16;;;0.99;78.48
55801;BME280;41730;51.960;20.158;2023-02-16T02:07:24;100963.04;;;1.05;78.52
55801;BME280;41730;51.960;20.158;2023-02-16T02:10:05;100958.97;;;1.09;78.63
55801;BME280;41730;51.960;20.158;2023-02-16T02:12:45;100955.88;;;1.02;78.23
55801;BME280;41730;51.960;20.158;2023-02-16T02:15:23;100952.98;;;1.06;78.31
55801;BME280;41730;51.960;20.158;2023-02-16T02:18:00;100945.39;;;1.12;78.02
55801;BME280;41730;51.960;20.158;2023-02-16T02:20:43;100948.02;;;1.04;78.42
55801;BME280;41730;51.960;20.158;2023-02-16T02:23:59;100942.64;;;1.00;78.36
55801;BME280;41730;51.960;20.158;2023-02-16T02:30:17;100936.17;;;0.97;78.35
55801;BME280;41730;51.960;20.158;2023-02-16T02:33:19;100919.34;;;0.94;78.40
55801;BME280;41730;51.960;20.158;2023-02-16T02:35:57;100913.80;;;1.11;77.86
55801;BME280;41730;51.960;20.158;2023-02-16T02:38:39;100911.90;;;1.11;77.49
55801;BME280;41730;51.960;20.158;2023-02-16T02:41:26;100917.52;;;1.19;77.33
55801;BME280;41730;51.960;20.158;2023-02-16T02:44:23;100904.75;;;1.13;77.44
55801;BME280;41730;51.960;20.158;2023-02-16T02:46:58;100910.48;;;1.02;77.57
55801;BME280;41730;51.960;20.158;2023-02-16T02:49:34;100906.92;;;0.94;77.90
55801;BME280;41730;51.960;20.158;2023-02-16T02:52:09;100900.29;;;1.01;77.69
55801;BME280;41730;51.960;20.158;2023-02-16T02:54:42;100903.83;;;0.93;78.03
55801;BME280;41730;51.960;20.158;2023-02-16T02:57:36;100904.80;;;0.95;77.83
55801;BME280;41730;51.960;20.158;2023-02-16T03:00:32;100895.84;;;0.95;77.74
55801;BME280;41730;51.960;20.158;2023-02-16T03:03:21;100894.39;;;0.86;78.02
55801;BME280;41730;51.960;20.158;2023-02-16T03:06:03;100886.70;;;0.78;78.35
55801;BME280;41730;51.960;20.158;2023-02-16T03:08:43;100880.93;;;0.75;78.29
55801;BME280;41730;51.960;20.158;2023-02-16T03:11:25;100890.98;;;0.69;78.76
55801;BME280;41730;51.960;20.158;2023-02-16T03:14:22;100888.28;;;0.60;78.85
55801;BME280;41730;51.960;20.158;2023-02-16T03:17:00;100887.35;;;0.62;78.77
55801;BME280;41730;51.960;20.158;2023-02-16T03:19:53;100883.84;;;0.65;78.87
55801;BME280;41730;51.960;20.158;2023-02-16T03:22:52;100881.84;;;0.62;78.44
55801;BME280;41730;51.960;20.158;2023-02-16T03:25:43;100881.28;;;0.63;78.46
55801;BME280;41730;51.960;20.158;2023-02-16T03:28:35;100880.55;;;0.71;78.57
55801;BME280;41730;51.960;20.158;2023-02-16T03:31:40;100869.56;;;0.69;78.37
55801;BME280;41730;51.960;20.158;2023-02-16T03:34:17;100863.52;;;0.74;78.38
55801;BME280;41730;51.960;20.158;2023-02-16T03:36:52;100860.38;;;0.76;78.13
55801;BME280;41730;51.960;20.158;2023-02-16T03:39:30;100854.92;;;0.68;78.25
55801;BME280;41730;51.960;20.158;2023-02-16T03:42:25;100849.67;;;0.81;78.22
55801;BME280;41730;51.960;20.158;2023-02-16T03:44:58;100850.61;;;0.84;77.92
55801;BME280;41730;51.960;20.158;2023-02-16T03:47:37;100843.85;;;0.85;77.92
55801;BME280;41730;51.960;20.158;2023-02-16T03:50:11;100846.80;;;0.90;77.72
55801;BME280;41730;51.960;20.158;2023-02-16T03:52:45;100843.18;;;0.84;77.93
55801;BME280;41730;51.960;20.158;2023-02-16T03:55:20;100851.04;;;0.81;78.26
55801;BME280;41730;51.960;20.158;2023-02-16T03:57:52;100851.60;;;0.75;78.22
55801;BME280;41730;51.960;20.158;2023-02-16T04:00:25;100851.64;;;0.84;78.30
55801;BME280;41730;51.960;20.158;2023-02-16T04:03:00;100851.52;;;1.03;77.62
55801;BME280;41730;51.960;20.158;2023-02-16T04:05:36;100852.20;;;0.93;77.49
55801;BME280;41730;51.960;20.158;2023-02-16T04:08:09;100852.42;;;0.87;77.84
55801;BME280;41730;51.960;20.158;2023-02-16T04:10:45;100851.50;;;0.83;78.18
55801;BME280;41730;51.960;20.158;2023-02-16T04:13:17;100845.17;;;0.66;78.59
55801;BME280;41730;51.960;20.158;2023-02-16T04:15:53;100851.60;;;0.69;78.89
55801;BME280;41730;51.960;20.158;2023-02-16T04:18:29;100845.45;;;0.78;78.31
55801;BME280;41730;51.960;20.158;2023-02-16T04:21:07;100843.92;;;0.83;78.38
55801;BME280;41730;51.960;20.158;2023-02-16T04:23:41;100840.17;;;0.81;78.25
55801;BME280;41730;51.960;20.158;2023-02-16T04:34:03;100821.29;;;1.25;76.69
55801;BME280;41730;51.960;20.158;2023-02-16T04:36:36;100830.73;;;1.41;76.24
55801;BME280;41730;51.960;20.158;2023-02-16T04:39:08;100835.70;;;1.28;76.30
55801;BME280;41730;51.960;20.158;2023-02-16T04:41:40;100834.92;;;1.15;76.81
55801;BME280;41730;51.960;20.158;2023-02-16T04:44:12;100834.02;;;0.90;77.64
55801;BME280;41730;51.960;20.158;2023-02-16T04:46:44;100832.55;;;0.76;78.09
55801;BME280;41730;51.960;20.158;2023-02-16T04:49:17;100831.32;;;0.83;78.00
55801;BME280;41730;51.960;20.158;2023-02-16T04:51:50;100831.08;;;0.85;78.19
55801;BME280;41730;51.960;20.158;2023-02-16T04:54:22;100827.73;;;0.87;77.78
55801;BME280;41730;51.960;20.158;2023-02-16T04:56:54;100826.29;;;0.78;78.18
55801;BME280;41730;51.960;20.158;2023-02-16T04:59:26;100828.79;;;0.81;77.75
55801;BME280;41730;51.960;20.158;2023-02-16T05:01:59;100832.44;;;0.75;78.38
55801;BME280;41730;51.960;20.158;2023-02-16T05:04:31;100824.39;;;0.94;77.72
55801;BME280;41730;51.960;20.158;2023-02-16T05:07:05;100823.52;;;0.94;77.33
55801;BME280;41730;51.960;20.158;2023-02-16T05:09:43;100822.02;;;0.82;77.89
55801;BME280;41730;51.960;20.158;2023-02-16T05:12:16;100823.59;;;0.81;77.93
55801;BME280;41730;51.960;20.158;2023-02-16T05:15:07;100823.33;;;0.84;77.45
55801;BME280;41730;51.960;20.158;2023-02-16T05:17:39;100816.91;;;0.80;77.88
55801;BME280;41730;51.960;20.158;2023-02-16T05:20:13;100816.85;;;0.76;77.83
55801;BME280;41730;51.960;20.158;2023-02-16T05:22:44;100818.25;;;0.71;77.90
55801;BME280;41730;51.960;20.158;2023-02-16T05:25:17;100820.03;;;0.69;78.30
55801;BME280;41730;51.960;20.158;2023-02-16T05:27:49;100823.02;;;0.72;78.25
55801;BME280;41730;51.960;20.158;2023-02-16T05:30:21;100818.27;;;0.76;78.40
55801;BME280;41730;51.960;20.158;2023-02-16T05:32:54;100821.66;;;0.83;77.62
55801;BME280;41730;51.960;20.158;2023-02-16T05:35:28;100821.11;;;0.78;78.17
55801;BME280;41730;51.960;20.158;2023-02-16T05:38:00;100824.05;;;0.73;78.15
55801;BME280;41730;51.960;20.158;2023-02-16T05:40:33;100829.31;;;0.76;78.20
55801;BME280;41730;51.960;20.158;2023-02-16T05:43:05;100837.25;;;0.75;77.96
55801;BME280;41730;51.960;20.158;2023-02-16T05:45:38;100831.45;;;0.84;77.95
55801;BME280;41730;51.960;20.158;2023-02-16T05:48:10;100838.80;;;0.91;77.43
55801;BME280;41730;51.960;20.158;2023-02-16T05:50:42;100843.06;;;0.88;77.38
55801;BME280;41730;51.960;20.158;2023-02-16T05:53:15;100834.17;;;0.75;77.76
55801;BME280;41730;51.960;20.158;2023-02-16T05:55:49;100839.81;;;0.66;78.21
55801;BME280;41730;51.960;20.158;2023-02-16T05:58:21;100835.86;;;0.65;78.36
55801;BME280;41730;51.960;20.158;2023-02-16T06:00:53;100836.24;;;0.64;78.22
55801;BME280;41730;51.960;20.158;2023-02-16T06:03:25;100837.88;;;0.67;78.29
55801;BME280;41730;51.960;20.158;2023-02-16T06:05:58;100838.04;;;0.67;78.19
55801;BME280;41730;51.960;20.158;2023-02-16T06:08:31;100831.09;;;0.74;77.92
55801;BME280;41730;51.960;20.158;2023-02-16T06:11:03;100826.05;;;0.70;78.29
55801;BME280;41730;51.960;20.158;2023-02-16T06:13:56;100830.59;;;0.62;78.38
55801;BME280;41730;51.960;20.158;2023-02-16T06:16:29;100834.27;;;0.66;78.43
55801;BME280;41730;51.960;20.158;2023-02-16T06:19:02;100832.90;;;0.60;78.60
55801;BME280;41730;51.960;20.158;2023-02-16T06:21:34;100837.89;;;0.60;78.75
55801;BME280;41730;51.960;20.158;2023-02-16T06:24:07;100841.70;;;0.65;78.62
55801;BME280;41730;51.960;20.158;2023-02-16T06:26:40;100835.42;;;0.73;78.59
55801;BME280;41730;51.960;20.158;2023-02-16T06:29:12;100828.23;;;0.77;78.35
55801;BME280;41730;51.960;20.158;2023-02-16T06:31:44;100827.14;;;0.84;78.44
55801;BME280;41730;51.960;20.158;2023-02-16T06:34:16;100821.58;;;0.90;78.42
55801;BME280;41730;51.960;20.158;2023-02-16T06:36:48;100819.10;;;1.08;77.87
55801;BME280;41730;51.960;20.158;2023-02-16T06:39:20;100822.67;;;0.99;78.18
55801;BME280;41730;51.960;20.158;2023-02-16T06:41:52;100823.16;;;1.00;78.35
55801;BME280;41730;51.960;20.158;2023-02-16T06:44:25;100825.83;;;1.03;78.23
55801;BME280;41730;51.960;20.158;2023-02-16T06:46:59;100825.50;;;1.07;78.38
55801;BME280;41730;51.960;20.158;2023-02-16T06:49:31;100823.67;;;1.10;78.42
55801;BME280;41730;51.960;20.158;2023-02-16T06:52:04;100818.81;;;1.01;78.60
55801;BME280;41730;51.960;20.158;2023-02-16T06:54:36;100816.69;;;1.13;78.57
55801;BME280;41730;51.960;20.158;2023-02-16T06:57:08;100812.58;;;1.22;78.64
55801;BME280;41730;51.960;20.158;2023-02-16T06:59:40;100819.76;;;1.44;78.78
55801;BME280;41730;51.960;20.158;2023-02-16T07:02:12;100816.52;;;1.62;78.58
55801;BME280;41730;51.960;20.158;2023-02-16T07:04:44;100815.18;;;1.66;79.39
55801;BME280;41730;51.960;20.158;2023-02-16T07:07:16;100819.69;;;1.84;79.67
55801;BME280;41730;51.960;20.158;2023-02-16T07:09:47;100818.14;;;1.98;79.98
55801;BME280;41730;51.960;20.158;2023-02-16T07:12:20;100815.72;;;2.30;79.43
55801;BME280;41730;51.960;20.158;2023-02-16T07:14:53;100808.09;;;2.53;79.39
55801;BME280;41730;51.960;20.158;2023-02-16T07:17:25;100817.30;;;2.60;79.31
55801;BME280;41730;51.960;20.158;2023-02-16T07:19:57;100819.74;;;2.69;79.13
55801;BME280;41730;51.960;20.158;2023-02-16T07:22:29;100816.77;;;2.78;78.78
55801;BME280;41730;51.960;20.158;2023-02-16T07:25:01;100818.90;;;2.98;78.20
55801;BME280;41730;51.960;20.158;2023-02-16T07:27:33;100816.87;;;3.01;78.49
55801;BME280;41730;51.960;20.158;2023-02-16T07:30:07;100813.72;;;3.10;78.87
55801;BME280;41730;51.960;20.158;2023-02-16T07:32:40;100810.61;;;3.22;79.16
55801;BME280;41730;51.960;20.158;2023-02-16T07:35:13;100813.52;;;3.35;79.35
55801;BME280;41730;51.960;20.158;2023-02-16T07:37:45;100808.40;;;3.61;79.25
55801;BME280;41730;51.960;20.158;2023-02-16T07:40:17;100802.55;;;3.80;78.81
55801;BME280;41730;51.960;20.158;2023-02-16T07:42:48;100796.23;;;3.85;78.61
55801;BME280;41730;51.960;20.158;2023-02-16T07:45:20;100792.77;;;3.89;78.38
55801;BME280;41730;51.960;20.158;2023-02-16T07:47:52;100791.92;;;3.92;78.09
55801;BME280;41730;51.960;20.158;2023-02-16T07:50:24;100795.41;;;3.99;77.54
55801;BME280;41730;51.960;20.158;2023-02-16T07:52:56;100797.98;;;4.07;77.16
55801;BME280;41730;51.960;20.158;2023-02-16T07:55:28;100801.41;;;4.09;77.08
55801;BME280;41730;51.960;20.158;2023-02-16T07:58:02;100803.93;;;4.11;77.30
55801;BME280;41730;51.960;20.158;2023-02-16T08:00:34;100804.34;;;4.28;77.06
55801;BME280;41730;51.960;20.158;2023-02-16T08:03:07;100804.64;;;4.32;76.91
55801;BME280;41730;51.960;20.158;2023-02-16T08:05:40;100809.54;;;4.42;76.77
55801;BME280;41730;51.960;20.158;2023-02-16T08:08:12;100799.02;;;4.52;77.03
55801;BME280;41730;51.960;20.158;2023-02-16T08:10:44;100798.83;;;4.63;76.66
55801;BME280;41730;51.960;20.158;2023-02-16T08:13:16;100793.67;;;4.76;76.70
55801;BME280;41730;51.960;20.158;2023-02-16T08:15:48;100796.30;;;5.04;75.95
55801;BME280;41730;51.960;20.158;2023-02-16T08:18:20;100796.84;;;5.10;75.42
55801;BME280;41730;51.960;20.158;2023-02-16T08:20:51;100802.55;;;5.21;75.51
55801;BME280;41730;51.960;20.158;2023-02-16T08:23:33;100799.83;;;5.40;75.20
55801;BME280;41730;51.960;20.158;2023-02-16T08:26:10;100800.84;;;5.61;74.42
55801;BME280;41730;51.960;20.158;2023-02-16T08:28:42;100798.40;;;5.78;74.08
55801;BME280;41730;51.960;20.158;2023-02-16T08:31:18;100795.90;;;5.82;73.71
55801;BME280;41730;51.960;20.158;2023-02-16T08:33:50;100792.27;;;6.01;73.05
55801;BME280;41730;51.960;20.158;2023-02-16T08:36:24;100788.77;;;6.02;72.60
55801;BME280;41730;51.960;20.158;2023-02-16T08:38:59;100791.47;;;6.03;72.36
55801;BME280;41730;51.960;20.158;2023-02-16T08:41:32;100791.57;;;6.01;72.37
55801;BME280;41730;51.960;20.158;2023-02-16T08:44:05;100792.92;;;6.02;72.20
55801;BME280;41730;51.960;20.158;2023-02-16T08:46:39;100789.16;;;6.10;72.01
55801;BME280;41730;51.960;20.158;2023-02-16T08:49:13;100787.34;;;6.31;71.37
55801;BME280;41730;51.960;20.158;2023-02-16T08:51:47;100782.20;;;6.39;70.89
55801;BME280;41730;51.960;20.158;2023-02-16T08:54:21;100789.27;;;6.31;70.88
55801;BME280;41730;51.960;20.158;2023-02-16T08:56:55;100788.84;;;6.29;71.24
55801;BME280;41730;51.960;20.158;2023-02-16T08:59:28;100794.31;;;6.34;71.28
55801;BME280;41730;51.960;20.158;2023-02-16T09:02:01;100793.36;;;6.38;71.15
55801;BME280;41730;51.960;20.158;2023-02-16T09:04:33;100786.69;;;6.46;70.90
55801;BME280;41730;51.960;20.158;2023-02-16T09:07:06;100786.45;;;6.47;70.88
55801;BME280;41730;51.960;20.158;2023-02-16T09:09:37;100785.96;;;6.59;70.83
55801;BME280;41730;51.960;20.158;2023-02-16T09:12:11;100788.73;;;6.71;70.39
55801;BME280;41730;51.960;20.158;2023-02-16T09:14:46;100789.92;;;6.84;69.66
55801;BME280;41730;51.960;20.158;2023-02-16T09:17:18;100790.20;;;6.73;69.53
55801;BME280;41730;51.960;20.158;2023-02-16T09:19:50;100790.83;;;6.74;69.61
55801;BME280;41730;51.960;20.158;2023-02-16T09:22:22;100787.16;;;6.77;69.14
55801;BME280;41730;51.960;20.158;2023-02-16T09:24:57;100784.17;;;6.75;69.17
55801;BME280;41730;51.960;20.158;2023-02-16T09:27:29;100786.10;;;6.69;69.51
55801;BME280;41730;51.960;20.158;2023-02-16T09:30:03;100785.57;;;6.81;69.32
55801;BME280;41730;51.960;20.158;2023-02-16T09:32:36;100786.49;;;6.92;69.47
55801;BME280;41730;51.960;20.158;2023-02-16T09:35:09;100785.17;;;7.09;69.24
55801;BME280;41730;51.960;20.158;2023-02-16T09:37:41;100777.80;;;7.24;68.97
55801;BME280;41730;51.960;20.158;2023-02-16T09:40:13;100773.27;;;7.27;68.75
55801;BME280;41730;51.960;20.158;2023-02-16T09:42:53;100777.39;;;7.31;68.43
55801;BME280;41730;51.960;20.158;2023-02-16T09:45:28;100774.88;;;7.29;68.42
55801;BME280;41730;51.960;20.158;2023-02-16T09:48:07;100776.03;;;7.27;68.36
55801;BME280;41730;51.960;20.158;2023-02-16T09:50:41;100774.13;;;7.27;68.41
55801;BME280;41730;51.960;20.158;2023-02-16T09:53:31;100771.89;;;7.41;68.13
55801;BME280;41730;51.960;20.158;2023-02-16T09:56:13;100778.66;;;7.59;67.56
55801;BME280;41730;51.960;20.158;2023-02-16T09:58:58;100776.19;;;7.79;66.77
55801;BME280;41730;51.960;20.158;2023-02-16T10:01:38;100775.98;;;7.74;67.21
55801;BME280;41730;51.960;20.158;2023-02-16T10:04:29;100771.39;;;7.78;67.42
55801;BME280;41730;51.960;20.158;2023-02-16T10:07:17;100769.59;;;7.96;67.04
55801;BME280;41730;51.960;20.158;2023-02-16T10:09:55;100765.02;;;8.04;67.10
55801;BME280;41730;51.960;20.158;2023-02-16T10:12:35;100756.35;;;8.17;66.76
55801;BME280;41730;51.960;20.158;2023-02-16T10:15:15;100751.86;;;8.32;66.21
55801;BME280;41730;51.960;20.158;2023-02-16T10:17:56;100745.45;;;8.34;66.56
55801;BME280;41730;51.960;20.158;2023-02-16T10:20:31;100744.27;;;8.37;66.25
55801;BME280;41730;51.960;20.158;2023-02-16T10:23:10;100747.39;;;8.31;66.83
55801;BME280;41730;51.960;20.158;2023-02-16T10:25:49;100740.30;;;8.33;66.48
55801;BME280;41730;51.960;20.158;2023-02-16T10:28:38;100734.83;;;8.31;66.42
55801;BME280;41730;51.960;20.158;2023-02-16T10:31:16;100731.05;;;8.41;66.25
55801;BME280;41730;51.960;20.158;2023-02-16T10:34:11;100731.92;;;8.52;65.86
55801;BME280;41730;51.960;20.158;2023-02-16T10:36:58;100729.73;;;8.48;65.90
55801;BME280;41730;51.960;20.158;2023-02-16T10:39:41;100725.25;;;8.50;65.31
55801;BME280;41730;51.960;20.158;2023-02-16T10:42:20;100724.82;;;8.54;65.39
55801;BME280;41730;51.960;20.158;2023-02-16T10:45:00;100721.65;;;8.49;65.22
55801;BME280;41730;51.960;20.158;2023-02-16T10:47:39;100724.42;;;8.44;65.21
55801;BME280;41730;51.960;20.158;2023-02-16T10:50:23;100723.11;;;8.43;65.33
55801;BME280;41730;51.960;20.158;2023-02-16T10:52:59;100718.84;;;8.44;65.52
55801;BME280;41730;51.960;20.158;2023-02-16T10:55:32;100716.85;;;8.39;65.32
55801;BME280;41730;51.960;20.158;2023-02-16T10:58:12;100721.60;;;8.42;65.00
55801;BME280;41730;51.960;20.158;2023-02-16T11:00:51;100719.44;;;8.34;65.12
55801;BME280;41730;51.960;20.158;2023-02-16T11:03:30;100721.11;;;8.27;65.48
55801;BME280;41730;51.960;20.158;2023-02-16T11:06:16;100716.50;;;8.34;65.45
55801;BME280;41730;51.960;20.158;2023-02-16T11:08:53;100719.80;;;8.37;65.43
55801;BME280;41730;51.960;20.158;2023-02-16T11:11:27;100718.77;;;8.34;65.63
55801;BME280;41730;51.960;20.158;2023-02-16T11:14:02;100714.30;;;8.38;65.62
55801;BME280;41730;51.960;20.158;2023-02-16T11:16:36;100713.10;;;8.46;65.39
55801;BME280;41730;51.960;20.158;2023-02-16T11:19:17;100712.76;;;8.62;64.69
55801;BME280;41730;51.960;20.158;2023-02-16T11:21:53;100713.08;;;8.67;64.86
55801;BME280;41730;51.960;20.158;2023-02-16T11:24:30;100710.98;;;8.81;64.69
55801;BME280;41730;51.960;20.158;2023-02-16T11:27:09;100707.65;;;8.84;64.31
55801;BME280;41730;51.960;20.158;2023-02-16T11:29:46;100705.67;;;8.81;64.50
55801;BME280;41730;51.960;20.158;2023-02-16T11:32:19;100703.88;;;8.82;64.69
55801;BME280;41730;51.960;20.158;2023-02-16T11:34:52;100704.66;;;8.89;64.62
55801;BME280;41730;51.960;20.158;2023-02-16T11:37:26;100707.29;;;8.89;64.49
55801;BME280;41730;51.960;20.158;2023-02-16T11:40:02;100703.20;;;9.00;64.24
55801;BME280;41730;51.960;20.158;2023-02-16T11:42:37;100707.03;;;9.10;64.22
55801;BME280;41730;51.960;20.158;2023-02-16T11:45:24;100701.77;;;9.11;64.11
55801;BME280;41730;51.960;20.158;2023-02-16T11:48:03;100701.20;;;9.11;64.21
55801;BME280;41730;51.960;20.158;2023-02-16T11:50:39;100701.73;;;9.14;64.20
55801;BME280;41730;51.960;20.158;2023-02-16T11:53:28;100698.02;;;9.17;63.94
55801;BME280;41730;51.960;20.158;2023-02-16T11:56:20;100699.85;;;9.26;63.91
55801;BME280;41730;51.960;20.158;2023-02-16T11:59:15;100695.80;;;9.24;64.10
55801;BME280;41730;51.960;20.158;2023-02-16T12:02:07;100695.38;;;9.22;64.18
55801;BME280;41730;51.960;20.158;2023-02-16T12:04:56;100688.83;;;9.38;64.07
55801;BME280;41730;51.960;20.158;2023-02-16T12:07:39;100683.06;;;9.53;63.80
55801;BME280;41730;51.960;20.158;2023-02-16T12:10:16;100688.60;;;9.56;63.80
55801;BME280;41730;51.960;20.158;2023-02-16T12:12:55;100690.34;;;9.49;63.70
55801;BME280;41730;51.960;20.158;2023-02-16T12:15:37;100689.59;;;9.50;63.78
55801;BME280;41730;51.960;20.158;2023-02-16T12:18:29;100683.55;;;9.66;63.42
55801;BME280;41730;51.960;20.158;2023-02-16T12:21:15;100687.16;;;9.79;62.88
55801;BME280;41730;51.960;20.158;2023-02-16T12:23:58;100679.56;;;9.75;62.91
55801;BME280;41730;51.960;20.158;2023-02-16T12:26:46;100686.27;;;9.65;62.79
55801;BME280;41730;51.960;20.158;2023-02-16T12:29:34;100685.32;;;9.61;62.78
55801;BME280;41730;51.960;20.158;2023-02-16T12:32:25;100682.84;;;9.59;62.60
55801;BME280;41730;51.960;20.158;2023-02-16T12:35:20;100675.67;;;9.66;62.72
55801;BME280;41730;51.960;20.158;2023-02-16T12:38:05;100677.94;;;9.74;62.72
55801;BME280;41730;51.960;20.158;2023-02-16T12:40:49;100670.70;;;9.79;62.29
55801;BME280;41730;51.960;20.158;2023-02-16T12:43:36;100668.30;;;9.78;62.52
55801;BME280;41730;51.960;20.158;2023-02-16T12:46:16;100672.70;;;9.74;62.46
55801;BME280;41730;51.960;20.158;2023-02-16T12:48:55;100669.97;;;9.65;62.66
55801;BME280;41730;51.960;20.158;2023-02-16T12:51:35;100667.70;;;9.68;62.83
55801;BME280;41730;51.960;20.158;2023-02-16T12:54:15;100663.80;;;9.83;62.10
55801;BME280;41730;51.960;20.158;2023-02-16T12:56:51;100660.94;;;9.88;62.22
55801;BME280;41730;51.960;20.158;2023-02-16T12:59:31;100667.98;;;9.76;62.33
55801;BME280;41730;51.960;20.158;2023-02-16T13:02:13;100664.70;;;9.75;62.34
55801;BME280;41730;51.960;20.158;2023-02-16T13:04:48;100662.92;;;9.75;62.51
55801;BME280;41730;51.960;20.158;2023-02-16T13:07:28;100659.97;;;9.80;62.10
55801;BME280;41730;51.960;20.158;2023-02-16T13:10:06;100657.77;;;9.81;62.07
55801;BME280;41730;51.960;20.158;2023-02-16T13:12:49;100654.48;;;9.76;62.40
55801;BME280;41730;51.960;20.158;2023-02-16T13:15:24;100653.02;;;9.77;62.38
55801;BME280;41730;51.960;20.158;2023-02-16T13:18:04;100655.63;;;9.72;62.51
55801;BME280;41730;51.960;20.158;2023-02-16T13:20:42;100650.23;;;9.72;62.39
55801;BME280;41730;51.960;20.158;2023-02-16T13:23:33;100650.60;;;9.81;62.07
55801;BME280;41730;51.960;20.158;2023-02-16T13:26:30;100652.65;;;9.79;62.37
55801;BME280;41730;51.960;20.158;2023-02-16T13:29:34;100650.52;;;9.80;62.13
55801;BME280;41730;51.960;20.158;2023-02-16T13:35:29;100649.32;;;9.92;61.29
55801;BME280;41730;51.960;20.158;2023-02-16T13:38:13;100651.11;;;9.94;61.39
55801;BME280;41730;51.960;20.158;2023-02-16T13:41:10;100647.59;;;9.91;61.52
55801;BME280;41730;51.960;20.158;2023-02-16T13:43:49;100647.61;;;9.79;62.02
55801;BME280;41730;51.960;20.158;2023-02-16T13:46:31;100647.73;;;9.87;61.86
55801;BME280;41730;51.960;20.158;2023-02-16T13:49:05;100645.16;;;9.91;61.83
55801;BME280;41730;51.960;20.158;2023-02-16T13:51:44;100647.42;;;9.91;61.99
55801;BME280;41730;51.960;20.158;2023-02-16T13:54:29;100648.15;;;9.86;61.95
55801;BME280;41730;51.960;20.158;2023-02-16T13:57:11;100650.20;;;9.80;61.89
55801;BME280;41730;51.960;20.158;2023-02-16T13:59:57;100641.55;;;9.76;62.16